Time;durP1;ratioP1;P1;durP2;ratioP2;P2;SDS_P1;SDS_P2;PMS_P1;PMS_P2;Temp;Humidity;BMP_temperature;BMP_pressure;BME280_temperature;BME280_humidity;BME280_pressure;Samples;Min_cycle;Max_cycle;Signal;HPM_P1;HPM_P2
2022/08/25 00:01:58;;;;;;;3.88;2.65;;;;;;;18.40;100.00;102030.16;4913023;29;20206;-51
2022/08/25 00:04:25;;;;;;;5.05;2.55;;;;;;;18.42;100.00;102030.06;4912525;29;20220;-51
2022/08/25 00:06:52;;;;;;;3.30;2.50;;;;;;;18.40;100.00;102024.72;4933852;28;20527;-51
2022/08/25 00:09:20;;;;;;;6.57;3.00;;;;;;;18.40;100.00;102030.16;4912926;29;20250;-51
2022/08/25 00:11:48;;;;;;;4.18;3.10;;;;;;;18.42;100.00;102020.09;4913034;29;20243;-51
2022/08/25 00:14:20;;;;;;;3.63;2.50;;;;;;;18.36;100.00;102012.28;4909612;29;20709;-50
2022/08/25 00:16:46;;;;;;;5.03;3.13;;;;;;;18.17;100.00;102025.03;4909467;29;20690;-50
2022/08/25 00:19:17;;;;;;;3.50;2.33;;;;;;;18.11;100.00;102028.94;4910195;29;20271;-50
2022/08/25 00:21:44;;;;;;;5.65;2.72;;;;;;;18.02;100.00;102024.00;4913359;29;20188;-52
2022/08/25 00:24:10;;;;;;;3.42;2.30;;;;;;;18.11;100.00;102016.25;4912961;28;20300;-51
2022/08/25 00:26:42;;;;;;;6.32;2.80;;;;;;;18.10;100.00;102021.75;4913203;29;20188;-52
2022/08/25 00:29:09;;;;;;;7.13;2.72;;;;;;;17.97;100.00;102013.34;4912657;29;20542;-50
2022/08/25 00:31:36;;;;;;;3.97;2.63;;;;;;;18.04;100.00;102027.50;4912686;29;20219;-51
2022/08/25 00:34:02;;;;;;;3.20;2.42;;;;;;;18.14;100.00;102019.75;4913099;28;20219;-52
2022/08/25 00:36:28;;;;;;;4.50;2.63;;;;;;;18.14;100.00;102015.22;4912678;29;20262;-51
2022/08/25 00:38:54;;;;;;;5.22;3.03;;;;;;;18.10;100.00;102019.94;4895843;29;20288;-51
2022/08/25 00:41:24;;;;;;;5.93;2.70;;;;;;;17.98;100.00;102031.41;4908953;29;20191;-50
2022/08/25 00:43:55;;;;;;;4.70;2.90;;;;;;;17.90;100.00;102031.75;4912704;29;20568;-52
2022/08/25 00:46:40;;;;;;;2.42;2.08;;;;;;;17.98;100.00;102030.53;4912474;29;20286;-51
2022/08/25 00:49:14;;;;;;;6.00;2.50;;;;;;;17.87;100.00;102029.22;4910188;29;20199;-50
2022/08/25 00:51:46;;;;;;;2.50;2.30;;;;;;;17.77;100.00;102038.72;4912702;29;20219;-49
2022/08/25 00:54:16;;;;;;;5.85;2.58;;;;;;;17.77;100.00;102043.25;4910790;29;20222;-52
2022/08/25 00:56:44;;;;;;;3.78;2.75;;;;;;;17.83;100.00;102018.59;4924904;28;20204;-46
2022/08/25 00:59:09;;;;;;;3.25;2.50;;;;;;;17.75;100.00;102035.19;4916524;28;20188;-49
2022/08/25 01:01:35;;;;;;;5.00;2.65;;;;;;;17.72;100.00;102032.66;4912112;29;20196;-48
2022/08/25 01:04:01;;;;;;;3.25;2.10;;;;;;;17.70;100.00;102037.28;4912569;29;20361;-51
2022/08/25 01:06:32;;;;;;;2.95;2.72;;;;;;;17.56;100.00;102037.03;4912046;29;20226;-49
2022/08/25 01:08:57;;;;;;;3.50;2.10;;;;;;;17.64;100.00;102035.72;4909394;29;20188;-50
2022/08/25 01:11:23;;;;;;;3.72;2.53;;;;;;;17.61;100.00;102041.31;4912537;29;20454;-49
2022/08/25 01:13:55;;;;;;;4.65;2.20;;;;;;;17.49;100.00;102052.72;4912193;29;20215;-48
2022/08/25 01:16:21;;;;;;;3.40;2.70;;;;;;;17.54;100.00;102047.97;4912225;29;20243;-50
2022/08/25 01:18:53;;;;;;;4.63;2.63;;;;;;;17.40;100.00;102048.63;4911241;29;20189;-48
2022/08/25 01:21:21;;;;;;;4.05;2.65;;;;;;;17.12;100.00;102050.88;4910588;29;20298;-49
2022/08/25 01:23:48;;;;;;;3.47;2.75;;;;;;;16.95;100.00;102047.13;4911686;29;20255;-52
2022/08/25 01:26:25;;;;;;;4.63;2.90;;;;;;;16.99;100.00;102053.25;4912113;29;20196;-51
2022/08/25 01:31:38;;;;;;;3.00;2.65;;;;;;;17.02;100.00;102037.75;4912077;29;20237;-51
2022/08/25 01:34:05;;;;;;;3.25;2.55;;;;;;;17.15;100.00;102043.50;4910492;28;20582;-50
2022/08/25 01:36:32;;;;;;;2.92;2.60;;;;;;;17.14;100.00;102051.69;4910630;28;20195;-50
2022/08/25 01:38:57;;;;;;;3.30;2.42;;;;;;;17.11;100.00;102041.00;4911846;29;20192;-50
2022/08/25 01:41:39;;;;;;;7.03;2.63;;;;;;;17.03;100.00;102042.25;4911787;29;20234;-50
2022/08/25 01:44:04;;;;;;;4.18;2.80;;;;;;;17.05;100.00;102036.72;4911801;29;20710;-52
2022/08/25 01:46:31;;;;;;;4.35;2.60;;;;;;;17.07;100.00;102038.41;4912087;29;20184;-51
2022/08/25 01:48:56;;;;;;;2.47;2.30;;;;;;;17.11;100.00;102044.56;4911393;29;20567;-50
2022/08/25 01:51:24;;;;;;;4.65;2.42;;;;;;;17.16;100.00;102045.22;4911399;29;20235;-51
2022/08/25 01:53:50;;;;;;;4.28;2.90;;;;;;;17.07;100.00;102037.53;4911171;28;20238;-50
2022/08/25 01:56:17;;;;;;;3.42;2.40;;;;;;;17.06;100.00;102046.63;4907278;28;20216;-49
2022/08/25 01:58:48;;;;;;;3.25;2.50;;;;;;;17.04;100.00;102040.41;4909490;29;20259;-50
2022/08/25 02:01:21;;;;;;;3.55;2.28;;;;;;;16.96;100.00;102045.28;4910019;29;20671;-50
2022/08/25 02:03:51;;;;;;;3.75;2.22;;;;;;;16.91;100.00;102044.63;4909998;28;20225;-50
2022/08/25 02:06:23;;;;;;;4.15;2.40;;;;;;;16.92;100.00;102032.84;4907572;29;20199;-52
2022/08/25 02:08:54;;;;;;;2.60;2.33;;;;;;;16.95;100.00;102033.59;4908624;29;20643;-50
2022/08/25 02:11:22;;;;;;;2.50;2.30;;;;;;;16.95;100.00;102038.13;4911613;29;20199;-52
2022/08/25 02:13:47;;;;;;;5.13;2.25;;;;;;;17.00;100.00;102044.19;4911665;29;20203;-47
2022/08/25 02:16:21;;;;;;;3.35;2.50;;;;;;;16.98;100.00;102046.09;4910948;29;20188;-48
2022/08/25 02:18:47;;;;;;;3.78;2.65;;;;;;;16.91;100.00;102041.91;4907642;29;20187;-44
2022/08/25 02:21:13;;;;;;;3.80;2.90;;;;;;;16.85;100.00;102043.06;4908392;29;20200;-45
2022/08/25 02:23:40;;;;;;;2.40;2.20;;;;;;;16.91;100.00;102044.63;4925760;29;20188;-46
2022/08/25 02:26:07;;;;;;;2.55;2.35;;;;;;;16.73;100.00;102044.47;4926122;29;20274;-43
2022/08/25 02:28:33;;;;;;;3.95;2.65;;;;;;;16.63;100.00;102053.94;4910937;29;20203;-44
2022/08/25 02:30:58;;;;;;;2.88;2.33;;;;;;;16.68;100.00;102046.47;4911033;29;20192;-44
2022/08/25 02:33:24;;;;;;;3.03;2.40;;;;;;;16.67;100.00;102053.72;4911380;29;20204;-44
2022/08/25 02:35:50;;;;;;;3.08;2.50;;;;;;;16.69;100.00;102049.13;4907472;29;20575;-44
2022/08/25 02:38:17;;;;;;;3.97;2.70;;;;;;;16.63;100.00;102062.94;4911889;29;20192;-45
2022/08/25 02:40:42;;;;;;;3.72;2.28;;;;;;;16.63;100.00;102046.69;4909453;28;20205;-44
2022/08/25 02:43:08;;;;;;;2.63;2.42;;;;;;;16.64;100.00;102055.72;4911767;29;20643;-43
2022/08/25 02:45:34;;;;;;;3.17;2.60;;;;;;;16.59;100.00;102058.59;4911098;29;20216;-44
2022/08/25 02:47:59;;;;;;;2.38;2.17;;;;;;;16.57;100.00;102048.78;4911089;29;20805;-44
2022/08/25 02:50:25;;;;;;;2.50;2.30;;;;;;;16.57;100.00;102046.94;4899048;29;20184;-43
2022/08/25 02:52:51;;;;;;;3.25;2.67;;;;;;;16.55;100.00;102039.84;4933136;28;20235;-44
2022/08/25 02:55:17;;;;;;;4.18;3.03;;;;;;;16.48;100.00;102048.22;4911498;28;20279;-45
2022/08/25 02:57:43;;;;;;;3.22;2.40;;;;;;;16.46;100.00;102047.44;4911074;29;20189;-44
2022/08/25 03:00:12;;;;;;;4.50;2.80;;;;;;;16.44;100.00;102037.63;4910659;29;20585;-44
2022/08/25 03:02:40;;;;;;;4.55;2.72;;;;;;;16.52;100.00;102040.88;4911551;29;20184;-42
2022/08/25 03:05:06;;;;;;;3.70;2.47;;;;;;;16.52;100.00;102040.88;4928848;28;20208;-42
2022/08/25 03:07:33;;;;;;;3.38;2.95;;;;;;;16.44;100.00;102040.31;4914493;29;20438;-43
2022/08/25 03:09:58;;;;;;;5.65;2.60;;;;;;;16.48;100.00;102037.41;4913981;29;20659;-41
2022/08/25 03:12:24;;;;;;;2.33;2.13;;;;;;;16.51;100.00;102032.81;4913717;29;20255;-41
2022/08/25 03:14:49;;;;;;;5.03;2.63;;;;;;;16.50;100.00;102034.66;4914172;29;20299;-43
2022/08/25 03:17:15;;;;;;;2.80;2.33;;;;;;;16.45;100.00;102029.44;4914195;29;20200;-42
2022/08/25 03:19:40;;;;;;;3.58;2.53;;;;;;;16.41;100.00;102026.94;4913920;29;20655;-43
2022/08/25 03:22:05;;;;;;;2.58;2.35;;;;;;;16.27;100.00;102020.31;4913999;29;20234;-43
2022/08/25 03:24:31;;;;;;;3.08;2.70;;;;;;;16.24;100.00;102027.66;4913991;29;20220;-42
2022/08/25 03:26:57;;;;;;;3.38;2.50;;;;;;;16.14;100.00;102021.78;4914002;29;20180;-43
2022/08/25 03:29:25;;;;;;;2.85;2.50;;;;;;;16.10;100.00;102006.63;4913499;29;20570;-43
2022/08/25 03:31:53;;;;;;;2.65;2.45;;;;;;;16.14;100.00;102013.66;4914075;29;20215;-42
2022/08/25 03:34:21;;;;;;;2.63;2.35;;;;;;;16.14;100.00;102007.41;4913495;29;20208;-43
2022/08/25 03:36:51;;;;;;;3.17;2.30;;;;;;;16.17;100.00;102016.22;4911160;29;20203;-42
2022/08/25 03:39:19;;;;;;;4.22;3.50;;;;;;;16.12;100.00;102009.28;4913201;29;20196;-43
2022/08/25 03:41:46;;;;;;;4.57;3.65;;;;;;;16.15;100.00;102010.00;4913258;29;20239;-41
2022/08/25 03:44:13;;;;;;;6.68;5.28;;;;;;;16.05;100.00;102009.53;4911886;28;20212;-42
2022/08/25 03:46:42;;;;;;;6.47;4.82;;;;;;;16.07;100.00;102006.78;4912906;29;20338;-41
2022/08/25 03:49:12;;;;;;;6.20;5.47;;;;;;;16.11;100.00;101997.56;4910683;29;20192;-43
2022/08/25 03:51:47;;;;;;;10.93;6.43;;;;;;;16.17;100.00;101991.03;4913523;29;20203;-43
2022/08/25 03:54:15;;;;;;;9.90;7.60;;;;;;;16.19;100.00;101991.84;4909342;29;20210;-42
2022/08/25 03:56:41;;;;;;;8.52;6.53;;;;;;;16.11;100.00;101999.38;4907164;29;20184;-43
2022/08/25 03:59:09;;;;;;;13.13;8.93;;;;;;;16.23;100.00;101990.75;4907503;29;20786;-43
2022/08/25 04:01:40;;;;;;;11.55;8.10;;;;;;;16.22;100.00;101994.41;4913195;29;20195;-43
2022/08/25 04:04:07;;;;;;;11.05;8.52;;;;;;;16.24;100.00;102000.63;4912475;29;20702;-43
2022/08/25 04:06:33;;;;;;;11.25;8.70;;;;;;;16.37;100.00;102001.84;4910652;29;20180;-43
2022/08/25 04:08:58;;;;;;;13.77;9.27;;;;;;;16.43;100.00;102009.69;4912164;29;20198;-42
2022/08/25 04:11:26;;;;;;;9.50;7.80;;;;;;;16.42;100.00;102001.63;4912890;29;20567;-44
2022/08/25 04:13:55;;;;;;;8.68;7.80;;;;;;;16.51;100.00;102011.16;4913003;29;20695;-42
2022/08/25 04:16:26;;;;;;;11.20;8.45;;;;;;;16.56;100.00;102012.75;4912229;29;20184;-44
2022/08/25 04:18:53;;;;;;;10.82;8.80;;;;;;;16.56;100.00;102012.75;4910362;29;20199;-42
2022/08/25 04:21:21;;;;;;;14.73;10.55;;;;;;;16.63;100.00;102014.22;4912602;28;20184;-43
2022/08/25 04:23:48;;;;;;;14.65;10.98;;;;;;;16.71;100.00;102011.19;4909339;29;20192;-43
2022/08/25 04:26:21;;;;;;;12.23;9.68;;;;;;;16.88;100.00;102010.47;4912690;29;20192;-43
2022/08/25 04:28:47;;;;;;;20.77;12.88;;;;;;;16.85;100.00;102008.75;4912483;29;20201;-42
2022/08/25 04:31:14;;;;;;;19.40;12.05;;;;;;;16.93;100.00;102015.66;4927547;29;20195;-44
2022/08/25 04:33:40;;;;;;;14.93;11.32;;;;;;;16.96;100.00;102012.78;4927082;29;20543;-43
2022/08/25 04:36:10;;;;;;;15.98;11.63;;;;;;;17.05;100.00;102015.06;4912809;29;20188;-43
2022/08/25 04:38:36;;;;;;;16.17;11.82;;;;;;;17.13;100.00;102007.47;4912857;29;20196;-46
2022/08/25 04:41:04;;;;;;;17.38;12.57;;;;;;;17.11;100.00;102022.91;4912756;29;20193;-45
2022/08/25 04:43:31;;;;;;;20.55;12.93;;;;;;;17.17;100.00;102013.63;4913351;29;20195;-45
2022/08/25 04:45:57;;;;;;;13.63;12.20;;;;;;;17.27;100.00;102007.72;4908729;29;20214;-45
2022/08/25 04:48:23;;;;;;;19.58;12.05;;;;;;;17.29;100.00;102021.16;4929403;28;20268;-47
2022/08/25 04:50:49;;;;;;;15.60;12.35;;;;;;;17.33;100.00;102025.50;4911837;29;20242;-48
2022/08/25 04:53:15;;;;;;;18.48;12.45;;;;;;;17.41;100.00;102019.72;4912599;29;20638;-45
2022/08/25 04:55:45;;;;;;;20.00;11.82;;;;;;;17.41;100.00;102014.31;4912920;29;20218;-46
2022/08/25 04:58:12;;;;;;;16.73;12.40;;;;;;;17.45;100.00;102018.63;4909331;29;20203;-46
2022/08/25 05:00:38;;;;;;;15.70;11.85;;;;;;;17.50;100.00;102013.84;4913033;29;20196;-46
2022/08/25 05:03:05;;;;;;;16.77;12.40;;;;;;;17.54;100.00;102020.00;4912646;29;20176;-47
2022/08/25 05:05:31;;;;;;;16.02;11.27;;;;;;;17.60;100.00;102007.03;4912700;28;20211;-46
2022/08/25 05:07:58;;;;;;;22.83;13.02;;;;;;;17.57;100.00;102014.44;4913556;29;20196;-46
2022/08/25 05:10:24;;;;;;;13.43;12.02;;;;;;;17.62;100.00;102018.69;4912413;29;20255;-46
2022/08/25 05:12:49;;;;;;;18.40;11.93;;;;;;;17.64;100.00;102024.88;4912765;29;20210;-47
2022/08/25 05:17:59;;;;;;;15.52;11.77;;;;;;;17.76;100.00;102023.41;4912215;29;20673;-46
2022/08/25 05:20:25;;;;;;;17.65;11.30;;;;;;;17.80;100.00;102021.41;4910974;28;20187;-45
2022/08/25 05:22:51;;;;;;;15.90;10.57;;;;;;;17.82;100.00;102023.16;4911548;29;20235;-46
2022/08/25 05:25:16;;;;;;;16.13;11.13;;;;;;;17.84;100.00;102021.25;4910046;28;20218;-47
2022/08/25 05:27:42;;;;;;;12.55;10.40;;;;;;;17.85;100.00;102024.84;4910552;29;20565;-50
2022/08/25 05:30:10;;;;;;;15.90;10.50;;;;;;;17.92;100.00;102016.28;4910423;29;20184;-44
2022/08/25 05:32:36;;;;;;;12.38;9.80;;;;;;;18.00;100.00;102013.22;4905908;29;20192;-46
2022/08/25 05:35:04;;;;;;;14.00;9.63;;;;;;;18.02;100.00;102011.31;4908576;29;20208;-46
2022/08/25 05:37:30;;;;;;;13.15;9.63;;;;;;;17.95;100.00;102009.88;4911996;29;20556;-45
2022/08/25 05:39:55;;;;;;;11.88;8.52;;;;;;;18.09;100.00;102012.75;4908941;29;20188;-46
2022/08/25 05:42:21;;;;;;;12.75;9.77;;;;;;;18.07;100.00;102017.38;4908305;29;20242;-43
2022/08/25 05:44:47;;;;;;;14.85;8.95;;;;;;;18.17;100.00;102016.88;4908877;28;20278;-44
2022/08/25 05:47:13;;;;;;;12.85;9.20;;;;;;;18.18;100.00;102015.94;4911895;29;20180;-43
2022/08/25 05:49:38;;;;;;;12.75;8.38;;;;;;;18.20;100.00;102005.91;4911195;29;20192;-45
2022/08/25 05:52:04;;;;;;;12.68;8.93;;;;;;;18.19;100.00;102007.75;4911367;29;20250;-44
2022/08/25 05:54:30;;;;;;;13.52;9.02;;;;;;;18.23;100.00;102003.00;4911654;29;20528;-43
2022/08/25 05:56:56;;;;;;;14.02;8.48;;;;;;;18.31;100.00;102000.78;4911643;29;20623;-43
2022/08/25 05:59:22;;;;;;;12.38;8.30;;;;;;;18.33;100.00;101997.03;4911028;29;20671;-43
2022/08/25 06:04:32;;;;;;;9.07;7.72;;;;;;;18.42;100.00;101995.66;4907354;28;20222;-43
2022/08/25 06:06:57;;;;;;;12.77;7.95;;;;;;;18.44;100.00;101988.31;4911614;29;20196;-42
2022/08/25 06:09:24;;;;;;;10.95;7.90;;;;;;;18.56;100.00;101989.50;4910938;29;20198;-43
2022/08/25 06:11:50;;;;;;;11.38;7.47;;;;;;;18.60;100.00;101987.50;4910542;28;20223;-43
2022/08/25 06:14:15;;;;;;;11.73;7.57;;;;;;;18.66;100.00;101993.50;4910048;29;20291;-43
2022/08/25 06:16:41;;;;;;;12.82;7.47;;;;;;;18.75;100.00;101986.69;4911411;29;20271;-43
2022/08/25 06:19:08;;;;;;;11.77;6.55;;;;;;;19.06;100.00;101985.03;4910586;29;20658;-42
2022/08/25 06:21:34;;;;;;;8.18;6.28;;;;;;;19.06;100.00;101987.75;4911166;29;20195;-44
2022/08/25 06:23:59;;;;;;;14.48;6.72;;;;;;;19.31;100.00;101993.56;4910981;29;20475;-44
2022/08/25 06:26:25;;;;;;;10.20;7.05;;;;;;;19.29;100.00;102000.94;4911367;29;20263;-43
2022/08/25 06:28:51;;;;;;;8.18;5.80;;;;;;;19.45;100.00;102002.78;4910341;29;20558;-42
2022/08/25 06:31:19;;;;;;;11.68;6.57;;;;;;;19.72;100.00;101995.81;4911365;29;20262;-43
2022/08/25 06:33:44;;;;;;;9.50;5.70;;;;;;;19.98;100.00;101992.50;4910841;28;20212;-43
2022/08/25 06:36:10;;;;;;;12.10;5.75;;;;;;;20.17;100.00;101982.28;4911075;29;20191;-43
2022/08/25 06:38:35;;;;;;;11.50;5.55;;;;;;;20.61;100.00;101986.00;4912373;29;20196;-42
2022/08/25 06:41:03;;;;;;;10.40;5.72;;;;;;;20.71;98.62;101979.00;4913813;29;20184;-43
2022/08/25 06:43:28;;;;;;;10.38;5.05;;;;;;;20.92;96.59;101979.50;4914390;29;20192;-44
2022/08/25 06:45:54;;;;;;;7.13;4.60;;;;;;;21.27;94.36;101979.06;4927690;28;20262;-41
2022/08/25 06:48:19;;;;;;;8.15;5.03;;;;;;;21.40;92.24;101986.34;4914314;29;20258;-42
2022/08/25 06:50:45;;;;;;;11.40;4.60;;;;;;;21.32;90.43;101988.72;4914062;29;20191;-43
2022/08/25 06:53:11;;;;;;;8.77;3.92;;;;;;;21.50;89.79;101980.34;4913974;29;20294;-43
2022/08/25 06:55:36;;;;;;;10.00;4.15;;;;;;;21.79;88.61;101981.97;4914238;29;20215;-45
2022/08/25 06:58:03;;;;;;;7.25;4.00;;;;;;;21.96;87.56;101982.69;4914212;29;20231;-44
2022/08/25 07:00:29;;;;;;;8.65;3.95;;;;;;;21.88;86.78;101977.75;4914603;28;20246;-45
2022/08/25 07:02:55;;;;;;;9.45;4.22;;;;;;;21.65;87.57;101983.91;4914068;29;20187;-43
2022/08/25 07:05:21;;;;;;;9.05;3.67;;;;;;;21.75;86.99;101993.19;4913997;29;20217;-44
2022/08/25 07:07:46;;;;;;;6.20;3.90;;;;;;;21.59;88.28;101996.94;4914175;29;20187;-43
2022/08/25 07:10:12;;;;;;;5.20;3.30;;;;;;;21.45;88.76;101993.38;4913406;29;20253;-42
2022/08/25 07:12:38;;;;;;;6.30;4.10;;;;;;;21.36;89.61;101987.53;4914205;29;20231;-45
2022/08/25 07:15:05;;;;;;;8.13;4.35;;;;;;;21.58;88.99;101988.88;4913673;29;20218;-41
2022/08/25 07:17:31;;;;;;;8.25;4.20;;;;;;;21.70;88.60;101979.88;4914029;29;20249;-41
2022/08/25 07:19:56;;;;;;;8.48;4.13;;;;;;;21.35;88.33;101985.78;4905563;29;20645;-42
2022/08/25 07:22:22;;;;;;;4.78;3.70;;;;;;;21.21;89.25;101994.00;4913786;29;20299;-44
2022/08/25 07:24:47;;;;;;;15.25;4.70;;;;;;;21.27;89.47;102007.19;4910911;28;20718;-44
2022/08/25 07:27:13;;;;;;;8.30;5.00;;;;;;;21.05;89.67;102013.16;4908763;29;20184;-46
2022/08/25 07:29:38;;;;;;;10.85;5.43;;;;;;;20.94;89.88;102005.66;4911857;28;20774;-42
2022/08/25 07:32:05;;;;;;;7.90;5.05;;;;;;;20.95;90.14;102006.56;4913476;29;20199;-43
2022/08/25 07:37:15;;;;;;;8.20;5.22;;;;;;;20.97;89.54;102007.34;4913092;28;20651;-43
2022/08/25 07:39:41;;;;;;;31.85;7.65;;;;;;;20.96;88.92;102011.88;4932626;28;20196;-43
2022/08/25 07:42:08;;;;;;;7.55;5.00;;;;;;;20.77;89.63;102008.56;4921177;28;20180;-41
2022/08/25 07:44:33;;;;;;;10.38;5.32;;;;;;;20.83;90.31;101994.56;4911336;29;20208;-42
2022/08/25 07:46:59;;;;;;;10.70;6.15;;;;;;;20.67;90.91;102018.31;4909827;29;20245;-42
2022/08/25 07:49:26;;;;;;;7.65;5.70;;;;;;;20.87;91.13;102007.03;4907458;28;20199;-42
2022/08/25 07:51:53;;;;;;;6.85;5.90;;;;;;;20.77;91.15;102003.13;4905274;29;20188;-42
2022/08/25 07:54:19;;;;;;;8.40;5.72;;;;;;;20.81;90.45;102012.00;4904838;29;20557;-42
2022/08/25 07:56:44;;;;;;;5.97;5.38;;;;;;;21.05;90.67;102012.28;4917525;28;20192;-42
2022/08/25 07:59:10;;;;;;;9.25;5.70;;;;;;;21.73;88.03;102011.53;4922002;28;20184;-43
2022/08/25 08:01:36;;;;;;;7.35;5.03;;;;;;;21.85;86.90;102001.66;4910128;29;20668;-43
2022/08/25 08:04:02;;;;;;;8.15;5.65;;;;;;;22.18;85.48;101991.16;4924121;28;20208;-42
2022/08/25 08:06:28;;;;;;;8.13;4.80;;;;;;;22.39;84.76;101986.13;4917136;28;20202;-44
2022/08/25 08:08:55;;;;;;;9.35;4.97;;;;;;;22.36;84.40;101993.63;4912655;29;20187;-43
2022/08/25 08:11:21;;;;;;;17.05;5.70;;;;;;;21.66;84.69;102007.47;4912951;28;20569;-43
2022/08/25 08:13:47;;;;;;;6.72;4.45;;;;;;;21.98;84.27;101994.41;4911794;29;20730;-43
2022/08/25 08:16:17;;;;;;;5.97;4.38;;;;;;;21.80;84.10;102000.13;4910143;28;20544;-44
2022/08/25 08:18:44;;;;;;;10.40;5.32;;;;;;;21.75;84.37;101990.47;4912691;29;20180;-42
2022/08/25 08:21:31;;;;;;;5.70;4.20;;;;;;;21.62;84.78;101998.59;4912639;29;20199;-43
2022/08/25 08:23:57;;;;;;;7.47;4.70;;;;;;;22.02;83.90;101983.16;4910180;28;20220;-44
2022/08/25 08:26:24;;;;;;;7.97;4.45;;;;;;;21.81;83.28;101980.03;4925637;29;20194;-48
2022/08/25 08:28:50;;;;;;;8.73;4.53;;;;;;;21.69;84.17;101986.31;4898591;29;20241;-42
2022/08/25 08:31:21;;;;;;;9.57;4.57;;;;;;;21.70;83.85;101984.47;4910922;28;20222;-43
2022/08/25 08:33:48;;;;;;;7.95;4.45;;;;;;;22.29;82.50;101973.22;4911137;28;20239;-44
2022/08/25 08:36:14;;;;;;;8.07;4.28;;;;;;;22.77;80.93;101966.13;4910525;29;20206;-42
2022/08/25 08:38:42;;;;;;;10.77;4.45;;;;;;;22.62;79.87;101970.81;4912980;29;20184;-43
2022/08/25 08:44:05;;;;;;;4.90;3.70;;;;;;;22.31;80.57;101972.09;4912556;29;20211;-43
2022/08/25 08:46:42;;;;;;;6.82;4.22;;;;;;;22.68;80.34;101974.97;4910248;29;20188;-42
2022/08/25 08:49:28;;;;;;;6.18;3.92;;;;;;;23.07;78.91;101961.28;4912626;29;20191;-42
2022/08/25 08:52:00;;;;;;;7.80;3.70;;;;;;;23.45;77.47;101959.34;4910287;29;20278;-43
2022/08/25 08:54:30;;;;;;;5.95;3.80;;;;;;;23.33;77.09;101956.63;4912702;29;20305;-44
2022/08/25 08:57:15;;;;;;;7.65;3.70;;;;;;;23.23;76.54;101956.47;4912646;29;20205;-43
2022/08/25 09:00:05;;;;;;;6.45;3.50;;;;;;;23.26;76.29;101953.50;4911365;29;20287;-43
2022/08/25 09:02:35;;;;;;;5.65;3.50;;;;;;;23.68;75.48;101964.97;4909155;29;20175;-42
2022/08/25 09:05:07;;;;;;;7.32;3.70;;;;;;;23.80;74.90;101964.03;4927327;29;20212;-43
2022/08/25 09:08:08;;;;;;;6.35;3.25;;;;;;;23.63;73.90;101964.41;4913019;29;20222;-48
2022/08/25 09:10:44;;;;;;;9.40;3.42;;;;;;;23.91;73.14;101960.47;4907196;28;20206;-46
2022/08/25 09:14:01;;;;;;;6.88;3.40;;;;;;;24.02;73.05;101956.91;4911999;29;20639;-47
2022/08/25 09:16:54;;;;;;;6.10;3.00;;;;;;;23.87;72.66;101963.59;4912246;29;20235;-46
2022/08/25 09:19:30;;;;;;;8.73;3.42;;;;;;;23.36;74.48;101954.56;4911800;29;20191;-45
2022/08/25 09:22:05;;;;;;;7.65;3.33;;;;;;;23.30;75.28;101952.28;4910398;29;20195;-47
2022/08/25 09:24:40;;;;;;;5.57;3.50;;;;;;;23.18;75.53;101942.28;4910654;29;20211;-47
2022/08/25 09:27:05;;;;;;;8.20;3.60;;;;;;;22.83;75.71;101943.81;4910047;28;20187;-47
2022/08/25 09:29:51;;;;;;;5.22;2.95;;;;;;;22.91;75.48;101954.19;4911683;29;20198;-46
2022/08/25 09:32:17;;;;;;;6.00;3.15;;;;;;;23.24;75.56;101941.78;4926851;28;20222;-47
2022/08/25 09:34:46;;;;;;;8.35;3.85;;;;;;;23.07;74.13;101945.78;4911919;29;20211;-47
2022/08/25 09:37:12;;;;;;;6.63;3.10;;;;;;;23.10;75.04;101931.88;4909133;29;20661;-47
2022/08/25 09:39:37;;;;;;;6.53;2.80;;;;;;;23.39;74.57;101935.19;4911011;29;20187;-46
2022/08/25 09:42:03;;;;;;;7.18;3.25;;;;;;;23.43;73.28;101933.97;4911967;29;20345;-46
2022/08/25 09:44:40;;;;;;;4.85;3.13;;;;;;;23.10;74.67;101923.69;4910298;28;20286;-46
2022/08/25 09:47:23;;;;;;;8.35;3.40;;;;;;;22.86;75.39;101928.19;4910101;29;20207;-45
2022/08/25 09:49:59;;;;;;;4.35;2.90;;;;;;;22.96;75.61;101927.41;4910677;29;20632;-45
2022/08/25 09:52:31;;;;;;;10.30;3.45;;;;;;;22.94;75.52;101921.19;4910543;29;20518;-44
2022/08/25 09:55:20;;;;;;;10.48;3.55;;;;;;;23.06;75.59;101924.03;4911841;29;20242;-45
2022/08/25 09:57:54;;;;;;;5.80;2.85;;;;;;;23.53;73.11;101914.13;4916540;29;20207;-46
2022/08/25 10:00:25;;;;;;;7.70;2.83;;;;;;;23.84;72.08;101912.69;4909938;29;20233;-45
2022/08/25 10:03:12;;;;;;;4.78;2.70;;;;;;;23.49;72.40;101908.03;4912020;29;20242;-45
2022/08/25 10:05:42;;;;;;;7.63;2.88;;;;;;;23.59;72.29;101919.13;4911395;28;20213;-46
2022/08/25 10:08:23;;;;;;;4.63;2.55;;;;;;;23.77;73.52;101906.81;4926057;29;20199;-47
2022/08/25 10:10:54;;;;;;;5.68;2.67;;;;;;;24.46;71.08;101917.81;4911873;29;20278;-45
2022/08/25 10:13:20;;;;;;;6.68;2.65;;;;;;;24.03;72.35;101903.91;4910310;29;20208;-48
2022/08/25 10:15:47;;;;;;;9.18;3.00;;;;;;;23.87;73.49;101915.19;4911181;29;20215;-45
2022/08/25 10:18:16;;;;;;;9.20;2.90;;;;;;;24.00;73.30;101904.16;4910173;29;20175;-46
2022/08/25 10:20:41;;;;;;;7.05;2.35;;;;;;;24.46;71.53;101901.38;4910968;29;20239;-47
2022/08/25 10:23:12;;;;;;;6.45;3.00;;;;;;;24.28;72.50;101897.38;4911675;29;20194;-45
2022/08/25 10:25:46;;;;;;;15.13;4.10;;;;;;;24.18;71.84;101888.13;4911144;29;20211;-45
2022/08/25 10:28:30;;;;;;;8.00;3.10;;;;;;;24.74;70.72;101880.00;4925641;29;20195;-46
2022/08/25 10:31:14;;;;;;;6.10;2.78;;;;;;;24.64;69.89;101882.63;4910869;29;20191;-48
2022/08/25 10:34:06;;;;;;;9.23;2.80;;;;;;;24.04;72.00;101890.09;4908574;29;20215;-46
2022/08/25 10:36:42;;;;;;;24.98;5.60;;;;;;;24.47;72.57;101888.56;4936051;28;20543;-48
2022/08/25 10:39:16;;;;;;;7.13;2.70;;;;;;;25.04;69.97;101876.59;4910055;29;20226;-47
2022/08/25 10:41:50;;;;;;;7.25;2.65;;;;;;;25.21;67.12;101871.59;4910124;29;20195;-46
2022/08/25 10:47:28;;;;;;;4.70;2.70;;;;;;;25.10;66.44;101869.72;4911399;29;20618;-45
2022/08/25 10:49:59;;;;;;;4.25;2.83;;;;;;;25.53;64.88;101862.53;4910644;29;20194;-48
2022/08/25 10:52:37;;;;;;;6.75;2.47;;;;;;;25.01;65.11;101854.03;4910659;29;20570;-45
2022/08/25 10:55:17;;;;;;;4.72;2.75;;;;;;;24.99;64.24;101865.16;4908798;29;20207;-40
2022/08/25 10:58:00;;;;;;;6.32;3.00;;;;;;;25.24;65.03;101855.75;4903744;29;20206;-43
2022/08/25 11:00:36;;;;;;;5.90;3.00;;;;;;;25.12;65.12;101855.88;4909944;29;20194;-43
2022/08/25 11:03:12;;;;;;;4.15;3.10;;;;;;;25.57;64.83;101862.13;4897408;29;20240;-48
2022/08/25 11:05:42;;;;;;;7.77;3.73;;;;;;;25.05;66.84;101861.88;4908735;29;20534;-48
2022/08/25 11:08:16;;;;;;;7.47;3.10;;;;;;;24.97;67.67;101864.41;4910936;29;20441;-47
2022/08/25 11:10:51;;;;;;;7.18;3.17;;;;;;;25.42;66.98;101860.69;4910350;28;20226;-49
2022/08/25 11:13:47;;;;;;;4.53;2.90;;;;;;;24.84;67.43;101866.44;4905239;29;20199;-47
2022/08/25 11:16:19;;;;;;;10.98;3.75;;;;;;;25.06;65.49;101854.53;4909432;29;20191;-46
2022/08/25 11:19:16;;;;;;;6.60;3.05;;;;;;;24.84;64.63;101853.59;4908018;29;20651;-47
2022/08/25 11:21:55;;;;;;;6.75;2.78;;;;;;;25.26;65.43;101842.78;4906936;29;20195;-48
2022/08/25 11:24:48;;;;;;;5.30;2.80;;;;;;;25.34;64.81;101841.25;4922695;28;20220;-47
2022/08/25 11:27:46;;;;;;;5.78;3.10;;;;;;;25.78;64.55;101842.06;4929229;28;20246;-49
2022/08/25 11:30:14;;;;;;;6.05;3.13;;;;;;;25.42;65.47;101841.50;4910704;29;20621;-47
2022/08/25 11:32:44;;;;;;;11.75;4.18;;;;;;;24.65;68.21;101843.25;4910973;29;20281;-50
2022/08/25 11:35:12;;;;;;;6.13;3.22;;;;;;;24.81;68.55;101837.38;4913888;28;20211;-50
2022/08/25 11:37:46;;;;;;;17.30;4.75;;;;;;;24.93;68.80;101834.63;4927981;29;20195;-49
2022/08/25 11:40:33;;;;;;;10.75;3.70;;;;;;;24.47;72.12;101840.13;4913652;29;20188;-50
2022/08/25 11:43:20;;;;;;;7.53;3.35;;;;;;;24.35;73.62;101837.50;4913744;29;20760;-48
2022/08/25 11:46:14;;;;;;;10.32;3.35;;;;;;;23.93;72.50;101827.09;4913357;29;20211;-48